Time;durP1;ratioP1;P1;durP2;ratioP2;P2;SDS_P1;SDS_P2;PMS_P1;PMS_P2;Temp;Humidity;BMP_temperature;BMP_pressure;BME280_temperature;BME280_humidity;BME280_pressure;Samples;Min_cycle;Max_cycle;Signal;HPM_P1;HPM_P2
2023/08/20 00:01:12;;;;;;;27.20;17.95;;;23.90;99.90;;;;;;5126193;28;20027;-78
2023/08/20 00:03:43;;;;;;;23.00;17.65;;;23.80;99.90;;;;;;5127075;28;20035;-79
2023/08/20 00:06:14;;;;;;;22.80;17.80;;;24.00;99.90;;;;;;5125287;28;20122;-80
2023/08/20 00:08:46;;;;;;;20.92;17.75;;;23.90;99.90;;;;;;5124959;28;20024;-76
2023/08/20 00:11:17;;;;;;;19.73;17.63;;;23.80;99.90;;;;;;5126510;28;20063;-77
2023/08/20 00:13:48;;;;;;;27.00;18.30;;;23.80;99.90;;;;;;5126371;28;20050;-76
2023/08/20 00:16:19;;;;;;;21.48;17.02;;;23.80;99.90;;;;;;5125225;28;20019;-76
2023/08/20 00:18:50;;;;;;;25.17;17.73;;;23.80;99.90;;;;;;5123078;28;20109;-76
2023/08/20 00:21:21;;;;;;;25.52;18.10;;;23.70;99.90;;;;;;5124926;28;20027;-76
2023/08/20 00:23:52;;;;;;;23.67;17.65;;;23.60;99.90;;;;;;5124543;28;20046;-77
2023/08/20 00:26:23;;;;;;;20.15;17.10;;;23.70;99.90;;;;;;5124552;28;20042;-76
2023/08/20 00:28:54;;;;;;;22.80;18.13;;;23.70;99.90;;;;;;5124894;28;20028;-77
2023/08/20 00:31:25;;;;;;;22.52;17.17;;;23.60;99.90;;;;;;5123234;29;20023;-77
2023/08/20 00:33:55;;;;;;;23.95;16.75;;;23.70;99.90;;;;;;5124648;28;20047;-77
2023/08/20 00:36:26;;;;;;;20.25;17.30;;;23.60;99.90;;;;;;5124368;29;20462;-77
2023/08/20 00:38:57;;;;;;;20.50;16.02;;;23.70;99.90;;;;;;5127738;28;20031;-76
2023/08/20 00:41:28;;;;;;;20.83;16.77;;;23.60;99.90;;;;;;5125422;28;20028;-76
2023/08/20 00:43:59;;;;;;;18.40;16.27;;;23.50;99.90;;;;;;5124953;29;20031;-79
2023/08/20 00:46:30;;;;;;;19.27;16.40;;;23.40;99.90;;;;;;5125069;28;20055;-75
2023/08/20 00:49:01;;;;;;;17.38;15.35;;;23.40;99.90;;;;;;5124387;28;20444;-78
2023/08/20 00:51:34;;;;;;;21.23;15.85;;;23.50;99.90;;;;;;5122712;28;20031;-75
2023/08/20 00:54:05;;;;;;;22.30;16.80;;;23.50;99.90;;;;;;5124350;28;20042;-77
2023/08/20 00:56:37;;;;;;;25.80;17.98;;;23.40;99.90;;;;;;5139274;28;20475;-77
2023/08/20 00:59:08;;;;;;;19.08;17.10;;;23.40;99.90;;;;;;5125089;28;20476;-76
2023/08/20 01:01:39;;;;;;;17.73;15.80;;;23.30;99.90;;;;;;5123201;28;20035;-81
2023/08/20 01:04:10;;;;;;;20.52;17.08;;;23.40;99.90;;;;;;5124139;28;20048;-77
2023/08/20 01:07:00;;;;;;;19.40;17.15;;;23.40;99.90;;;;;;5139140;28;20047;-77
2023/08/20 01:10:07;;;;;;;21.55;17.20;;;23.50;99.90;;;;;;5120004;29;20035;-77
2023/08/20 01:12:39;;;;;;;23.27;17.92;;;23.30;99.90;;;;;;5122022;28;20031;-77
2023/08/20 01:15:13;;;;;;;22.13;17.58;;;23.30;99.90;;;;;;5124546;29;20032;-78
2023/08/20 01:17:45;;;;;;;20.13;16.52;;;23.40;99.90;;;;;;5124567;28;20148;-76
2023/08/20 01:20:17;;;;;;;18.67;16.55;;;23.20;99.90;;;;;;5124366;28;20118;-76
2023/08/20 01:23:05;;;;;;;25.63;17.70;;;23.30;99.90;;;;;;5124502;28;20027;-77
2023/08/20 01:25:58;;;;;;;21.48;17.98;;;23.30;99.90;;;;;;5129020;28;20042;-79
2023/08/20 01:28:30;;;;;;;28.60;18.23;;;23.20;99.90;;;;;;5124093;29;20414;-76
2023/08/20 01:31:03;;;;;;;19.95;17.42;;;23.30;99.90;;;;;;5125101;28;20039;-77
2023/08/20 01:33:39;;;;;;;21.17;18.55;;;23.20;99.90;;;;;;5127660;28;20047;-76
2023/08/20 01:36:09;;;;;;;20.05;17.48;;;23.20;99.90;;;;;;5127103;29;20031;-76
2023/08/20 01:38:40;;;;;;;23.42;17.40;;;23.20;99.90;;;;;;5128049;29;20023;-79
2023/08/20 01:41:11;;;;;;;19.45;17.42;;;23.00;99.90;;;;;;5142852;28;20035;-76
2023/08/20 01:43:42;;;;;;;25.92;17.75;;;23.10;99.90;;;;;;5127680;28;20032;-76
2023/08/20 01:46:13;;;;;;;20.63;18.38;;;23.10;99.90;;;;;;5142943;28;20039;-77
2023/08/20 01:48:44;;;;;;;24.40;17.35;;;23.10;99.90;;;;;;5128187;28;20143;-77
2023/08/20 01:51:15;;;;;;;23.02;16.95;;;23.20;99.90;;;;;;5126592;29;20039;-79
2023/08/20 01:53:46;;;;;;;17.80;15.70;;;23.20;99.90;;;;;;5142711;28;20043;-76
2023/08/20 01:56:17;;;;;;;17.58;15.75;;;23.10;99.90;;;;;;5127620;28;20039;-79
2023/08/20 01:58:48;;;;;;;19.77;16.08;;;23.30;99.90;;;;;;5127946;28;20023;-78
2023/08/20 02:01:19;;;;;;;19.70;15.57;;;23.20;99.90;;;;;;5127604;28;20031;-76
2023/08/20 02:03:50;;;;;;;19.90;17.17;;;23.10;99.90;;;;;;5127506;28;20039;-79
2023/08/20 02:06:20;;;;;;;22.05;17.20;;;23.00;99.90;;;;;;5127715;28;20031;-76
2023/08/20 02:08:51;;;;;;;20.00;16.30;;;23.10;99.90;;;;;;5126356;29;20029;-77
2023/08/20 02:11:22;;;;;;;18.58;16.58;;;23.00;99.90;;;;;;5129913;28;20066;-77
2023/08/20 02:13:53;;;;;;;18.52;16.63;;;23.10;99.90;;;;;;5126253;29;20539;-78
2023/08/20 02:16:24;;;;;;;20.38;16.25;;;23.20;99.90;;;;;;5127351;28;20082;-79
2023/08/20 02:18:56;;;;;;;17.55;15.75;;;22.90;99.90;;;;;;5128911;28;20035;-77
2023/08/20 02:21:27;;;;;;;18.13;16.23;;;23.00;99.90;;;;;;5127575;28;20031;-77
2023/08/20 02:23:58;;;;;;;18.10;16.20;;;23.00;99.90;;;;;;5125756;29;20030;-77
2023/08/20 02:26:29;;;;;;;17.50;15.80;;;23.00;99.90;;;;;;5127419;28;20033;-77
2023/08/20 02:28:59;;;;;;;19.60;16.80;;;22.90;99.90;;;;;;5127021;29;20023;-77
2023/08/20 02:31:30;;;;;;;18.48;16.67;;;23.00;99.90;;;;;;5126967;28;20032;-81
2023/08/20 02:34:01;;;;;;;18.35;16.55;;;23.00;99.90;;;;;;5127159;28;20098;-78
2023/08/20 02:36:32;;;;;;;19.65;17.42;;;23.00;99.90;;;;;;5126713;28;20083;-76
2023/08/20 02:39:07;;;;;;;16.95;14.65;;;23.10;99.90;;;;;;5126847;28;20027;-77
2023/08/20 02:41:38;;;;;;;18.20;16.40;;;23.10;99.90;;;;;;5131257;28;20492;-77
2023/08/20 02:44:09;;;;;;;18.27;16.38;;;23.00;99.90;;;;;;5144326;28;20117;-78
2023/08/20 02:46:40;;;;;;;18.70;15.75;;;23.10;99.90;;;;;;5126816;28;20038;-77
2023/08/20 02:49:14;;;;;;;18.35;15.98;;;23.10;99.90;;;;;;5126189;28;20031;-80
2023/08/20 02:51:48;;;;;;;20.95;16.58;;;23.00;99.90;;;;;;5125635;29;20027;-81
2023/08/20 02:54:19;;;;;;;18.00;16.17;;;23.00;99.90;;;;;;5129169;28;20403;-80
2023/08/20 02:56:50;;;;;;;22.35;18.52;;;23.00;99.90;;;;;;5141652;28;20034;-77
2023/08/20 02:59:21;;;;;;;19.95;16.35;;;23.00;99.90;;;;;;5127009;28;20035;-81
2023/08/20 03:01:52;;;;;;;20.23;18.08;;;22.90;99.90;;;;;;5126695;29;20074;-77
2023/08/20 03:04:22;;;;;;;23.02;17.48;;;23.00;99.90;;;;;;5126095;28;20063;-78
2023/08/20 03:06:53;;;;;;;19.60;16.70;;;23.00;99.90;;;;;;5126357;28;20054;-77
2023/08/20 03:09:24;;;;;;;19.92;16.02;;;23.00;99.90;;;;;;5125623;28;20491;-77
2023/08/20 03:11:55;;;;;;;20.65;17.38;;;23.10;99.90;;;;;;5126144;28;20484;-77
2023/08/20 03:14:26;;;;;;;22.58;17.17;;;23.10;99.90;;;;;;5126267;28;20592;-77
2023/08/20 03:16:57;;;;;;;20.00;16.70;;;23.20;99.90;;;;;;5125126;29;20106;-77
2023/08/20 03:19:32;;;;;;;19.50;16.10;;;23.20;99.90;;;;;;5126330;28;20150;-77
2023/08/20 03:22:03;;;;;;;18.63;16.38;;;23.20;99.90;;;;;;5128025;28;20062;-76
2023/08/20 03:24:34;;;;;;;19.02;15.93;;;23.00;99.90;;;;;;5125080;29;20415;-81
2023/08/20 03:27:05;;;;;;;17.48;15.40;;;23.10;99.90;;;;;;5126344;28;20027;-77
2023/08/20 03:29:36;;;;;;;19.58;15.77;;;23.10;99.90;;;;;;5126411;28;20031;-77
2023/08/20 03:32:07;;;;;;;19.75;16.75;;;23.00;99.90;;;;;;5125843;28;20023;-77
2023/08/20 03:34:38;;;;;;;19.33;17.20;;;23.00;99.90;;;;;;5125795;28;20500;-76
2023/08/20 03:37:09;;;;;;;19.60;17.23;;;23.10;99.90;;;;;;5126091;29;20029;-78
2023/08/20 03:39:39;;;;;;;21.23;16.35;;;23.00;99.90;;;;;;5127181;28;20035;-76
2023/08/20 03:42:10;;;;;;;20.15;18.10;;;23.10;99.90;;;;;;5129995;28;20023;-76
2023/08/20 03:44:41;;;;;;;19.40;17.35;;;23.30;99.90;;;;;;5124615;29;20077;-77
2023/08/20 03:58:30;;;;;;;22.77;18.17;;;23.30;99.90;;;;;;5306485;27;20799;-78
2023/08/20 04:01:01;;;;;;;19.95;17.02;;;23.60;99.90;;;;;;5301993;27;20035;-78
2023/08/20 04:03:32;;;;;;;20.30;18.00;;;23.80;99.90;;;;;;5303320;27;20371;-77
2023/08/20 04:06:03;;;;;;;23.58;16.70;;;23.80;99.90;;;;;;5289630;28;20020;-76
2023/08/20 04:08:34;;;;;;;19.20;16.50;;;23.90;99.90;;;;;;5306045;28;20035;-78
2023/08/20 04:11:05;;;;;;;20.48;17.25;;;24.00;99.90;;;;;;5306385;28;20023;-78
2023/08/20 04:13:36;;;;;;;20.67;16.98;;;24.10;99.90;;;;;;5305519;27;20032;-82
2023/08/20 04:16:07;;;;;;;18.77;16.80;;;24.20;99.90;;;;;;5306142;27;20035;-77
2023/08/20 04:18:38;;;;;;;21.70;17.50;;;24.30;99.90;;;;;;5306060;28;20019;-77
2023/08/20 04:21:09;;;;;;;20.60;16.33;;;24.40;99.90;;;;;;5305721;27;20029;-79
2023/08/20 04:23:41;;;;;;;21.83;17.05;;;24.40;99.90;;;;;;5297566;28;20028;-77
2023/08/20 04:26:12;;;;;;;23.38;16.15;;;24.60;99.90;;;;;;5305935;27;20116;-81
2023/08/20 04:28:43;;;;;;;22.77;15.95;;;24.60;99.90;;;;;;5305795;28;20035;-76
2023/08/20 04:31:14;;;;;;;18.65;15.60;;;24.70;99.90;;;;;;5296967;28;20032;-77
2023/08/20 04:33:46;;;;;;;19.77;15.52;;;24.70;99.90;;;;;;5305593;27;20077;-76
2023/08/20 04:36:17;;;;;;;21.77;16.23;;;24.80;99.90;;;;;;5305724;27;20031;-77
2023/08/20 04:38:47;;;;;;;20.38;16.00;;;24.90;99.90;;;;;;5305565;27;20031;-80
2023/08/20 04:41:18;;;;;;;18.92;15.38;;;25.00;99.90;;;;;;5305100;28;20038;-78
2023/08/20 04:43:49;;;;;;;19.13;15.30;;;25.10;99.90;;;;;;5305296;27;20114;-77
2023/08/20 04:46:20;;;;;;;18.58;16.60;;;25.20;99.90;;;;;;5305125;28;20043;-81
2023/08/20 04:48:52;;;;;;;19.60;15.45;;;25.30;99.90;;;;;;5304505;27;20036;-79
2023/08/20 04:51:23;;;;;;;19.35;14.15;;;25.30;99.90;;;;;;5305585;28;20020;-78
2023/08/20 04:53:53;;;;;;;22.60;15.38;;;25.40;99.90;;;;;;5305627;28;20774;-77
2023/08/20 04:56:24;;;;;;;23.08;15.30;;;25.50;99.90;;;;;;5305518;28;20468;-77
2023/08/20 04:58:55;;;;;;;21.48;15.68;;;25.40;99.90;;;;;;5294473;27;20055;-77
2023/08/20 05:01:26;;;;;;;19.48;14.88;;;25.40;99.90;;;;;;5291552;28;20024;-81
2023/08/20 05:03:57;;;;;;;17.67;15.20;;;25.50;99.90;;;;;;5291352;28;20539;-77
2023/08/20 05:06:28;;;;;;;22.30;15.25;;;25.40;99.90;;;;;;5274063;28;20032;-77
2023/08/20 05:08:59;;;;;;;19.65;15.55;;;25.50;99.90;;;;;;5288326;28;20039;-78
2023/08/20 05:11:32;;;;;;;17.92;15.20;;;25.50;99.90;;;;;;5291568;28;20426;-78
2023/08/20 05:14:03;;;;;;;17.30;13.95;;;25.50;99.90;;;;;;5289280;28;20020;-78
2023/08/20 05:16:34;;;;;;;18.77;14.68;;;25.60;99.90;;;;;;5290979;28;20059;-78
2023/08/20 05:19:05;;;;;;;17.15;14.60;;;25.60;99.90;;;;;;5277686;28;20052;-78
2023/08/20 05:21:36;;;;;;;18.73;13.85;;;25.70;99.90;;;;;;5291114;28;20019;-77
2023/08/20 05:24:07;;;;;;;17.27;13.70;;;25.60;99.90;;;;;;5291458;28;20016;-80
2023/08/20 05:26:38;;;;;;;15.68;13.77;;;25.70;99.90;;;;;;5290992;28;20070;-81
2023/08/20 05:29:09;;;;;;;16.10;14.30;;;25.70;99.90;;;;;;5290737;28;20051;-80
2023/08/20 05:31:39;;;;;;;19.88;14.60;;;25.60;99.90;;;;;;5290736;28;20666;-77
2023/08/20 05:34:10;;;;;;;20.70;14.48;;;25.60;99.90;;;;;;5291069;28;20363;-80
2023/08/20 05:36:41;;;;;;;17.83;14.65;;;25.50;99.90;;;;;;5290576;28;20032;-77
2023/08/20 05:39:12;;;;;;;16.20;14.43;;;25.60;99.90;;;;;;5290664;28;20073;-78
2023/08/20 05:41:43;;;;;;;17.23;14.65;;;25.60;99.90;;;;;;5290743;28;20028;-77
2023/08/20 05:44:13;;;;;;;22.02;15.52;;;25.60;99.90;;;;;;5290751;28;20088;-77
2023/08/20 05:46:44;;;;;;;17.83;14.93;;;25.70;99.90;;;;;;5290459;28;20047;-80
2023/08/20 05:49:16;;;;;;;18.65;14.82;;;25.70;99.90;;;;;;5290969;28;20026;-77
2023/08/20 05:51:46;;;;;;;18.55;14.63;;;25.80;99.90;;;;;;5290327;28;20031;-77
2023/08/20 05:54:17;;;;;;;22.38;14.55;;;25.80;99.90;;;;;;5277574;28;20028;-76
2023/08/20 05:56:48;;;;;;;18.90;13.75;;;25.80;99.90;;;;;;5290272;28;20126;-78
2023/08/20 05:59:19;;;;;;;16.50;14.43;;;25.80;99.90;;;;;;5290657;28;20035;-78
2023/08/20 06:01:50;;;;;;;23.42;15.02;;;25.90;99.90;;;;;;5289057;28;20528;-78
2023/08/20 06:04:21;;;;;;;21.15;14.32;;;25.90;99.90;;;;;;5290709;28;20027;-81
2023/08/20 06:06:52;;;;;;;19.23;14.32;;;26.00;99.90;;;;;;5290547;28;20085;-79
2023/08/20 06:09:23;;;;;;;18.42;13.45;;;26.00;99.90;;;;;;5289934;28;20019;-79
2023/08/20 06:11:53;;;;;;;17.88;14.68;;;26.00;99.90;;;;;;5290102;28;20059;-78
2023/08/20 06:14:24;;;;;;;20.15;13.82;;;26.10;99.90;;;;;;5290340;28;20216;-80
2023/08/20 06:16:55;;;;;;;19.38;14.70;;;26.10;99.90;;;;;;5290165;28;20035;-80
2023/08/20 06:19:26;;;;;;;13.68;12.13;;;26.10;99.90;;;;;;5290321;28;20487;-77
2023/08/20 06:21:58;;;;;;;16.48;13.13;;;26.20;99.90;;;;;;5289964;28;20431;-77
2023/08/20 06:24:28;;;;;;;17.45;12.95;;;26.40;99.90;;;;;;5289996;28;20053;-78
2023/08/20 06:26:59;;;;;;;20.63;12.77;;;26.40;99.90;;;;;;5289688;28;20086;-78
2023/08/20 06:29:31;;;;;;;19.88;13.32;;;26.50;99.90;;;;;;5289878;28;20525;-79
2023/08/20 06:32:02;;;;;;;18.13;13.15;;;26.60;99.90;;;;;;5274692;28;20039;-80
2023/08/20 06:34:35;;;;;;;17.48;13.77;;;26.70;99.90;;;;;;5286878;28;20024;-79
2023/08/20 06:37:07;;;;;;;16.33;12.77;;;26.80;99.90;;;;;;5274110;28;20031;-81
2023/08/20 06:39:38;;;;;;;19.42;13.45;;;26.80;99.90;;;;;;5287519;27;20597;-80
2023/08/20 06:42:09;;;;;;;20.33;13.73;;;26.80;99.90;;;;;;5289662;28;20023;-78
2023/08/20 06:44:39;;;;;;;16.52;12.70;;;26.80;99.90;;;;;;5289543;28;20027;-78
2023/08/20 06:47:11;;;;;;;22.00;13.55;;;26.80;99.90;;;;;;5289118;28;20047;-78
2023/08/20 06:49:42;;;;;;;23.00;14.18;;;26.80;99.90;;;;;;5289276;28;20028;-78
2023/08/20 06:52:13;;;;;;;22.80;15.10;;;26.90;99.90;;;;;;5289399;28;20085;-78
2023/08/20 06:54:45;;;;;;;18.15;13.50;;;26.90;99.90;;;;;;5289082;28;20051;-77
2023/08/20 06:57:15;;;;;;;19.08;13.77;;;26.80;99.90;;;;;;5269170;28;20485;-78
2023/08/20 06:59:46;;;;;;;15.18;12.63;;;26.80;99.90;;;;;;5288976;28;20099;-79
2023/08/20 07:02:17;;;;;;;20.25;12.68;;;26.80;99.90;;;;;;5274902;28;20030;-77
2023/08/20 07:04:48;;;;;;;17.85;12.48;;;26.80;99.90;;;;;;5289036;28;20015;-78
2023/08/20 07:07:19;;;;;;;13.98;12.25;;;26.90;99.90;;;;;;5289185;28;20043;-78
2023/08/20 07:09:50;;;;;;;14.65;11.90;;;26.90;99.90;;;;;;5288734;28;20085;-79
2023/08/20 07:12:20;;;;;;;16.85;11.80;;;27.00;99.90;;;;;;5288789;28;20020;-78
2023/08/20 07:14:51;;;;;;;12.65;11.23;;;27.00;99.90;;;;;;5274743;28;20023;-79
2023/08/20 07:17:22;;;;;;;13.05;11.65;;;26.80;99.90;;;;;;5288829;28;20107;-79
2023/08/20 07:19:53;;;;;;;19.50;12.75;;;26.80;99.90;;;;;;5288430;28;20530;-79
2023/08/20 07:22:24;;;;;;;21.25;12.45;;;26.80;99.90;;;;;;5275064;28;20467;-79
2023/08/20 07:24:55;;;;;;;16.98;12.45;;;26.70;99.90;;;;;;5288659;28;20028;-79
2023/08/20 07:27:26;;;;;;;17.38;12.07;;;26.60;99.90;;;;;;5288402;28;20051;-79
2023/08/20 07:29:57;;;;;;;15.38;11.80;;;26.50;99.90;;;;;;5274608;28;20051;-79
2023/08/20 07:32:28;;;;;;;18.25;11.63;;;26.50;99.90;;;;;;5288609;28;20059;-80
2023/08/20 07:34:59;;;;;;;17.63;11.77;;;26.50;99.90;;;;;;5288509;28;20019;-79
2023/08/20 07:37:30;;;;;;;14.55;12.18;;;26.50;99.90;;;;;;5278542;28;20032;-78
2023/08/20 07:40:00;;;;;;;17.88;12.27;;;26.50;99.90;;;;;;5288650;28;20454;-79
2023/08/20 07:42:31;;;;;;;12.85;11.35;;;26.50;99.90;;;;;;5271525;28;20111;-79
2023/08/20 07:45:02;;;;;;;18.85;11.90;;;26.50;99.90;;;;;;5288144;28;20110;-80
2023/08/20 07:47:35;;;;;;;15.05;12.05;;;26.50;99.90;;;;;;5688616;22;20141;-78
2023/08/20 07:50:06;;;;;;;13.50;11.32;;;26.70;99.90;;;;;;5156836;28;20022;-78
2023/08/20 07:52:37;;;;;;;14.15;11.45;;;26.80;99.90;;;;;;5162372;28;20046;-78
2023/08/20 07:55:08;;;;;;;18.13;11.52;;;26.80;99.90;;;;;;5163661;28;20033;-76
2023/08/20 07:57:39;;;;;;;18.75;12.13;;;27.00;99.90;;;;;;5163659;28;20394;-78
2023/08/20 08:00:11;;;;;;;13.70;12.05;;;27.00;99.90;;;;;;5163939;28;20033;-78
2023/08/20 08:02:42;;;;;;;19.60;11.48;;;27.00;99.90;;;;;;5162786;28;20093;-77
2023/08/20 08:05:14;;;;;;;16.63;11.98;;;27.20;99.90;;;;;;5163938;28;20023;-76
2023/08/20 08:07:45;;;;;;;16.35;11.90;;;27.30;99.90;;;;;;5163394;28;21277;-78
2023/08/20 08:10:15;;;;;;;18.45;11.65;;;27.40;99.90;;;;;;5163762;28;20021;-76
2023/08/20 08:12:46;;;;;;;14.68;11.32;;;27.50;99.90;;;;;;5163729;28;20039;-76
2023/08/20 08:15:19;;;;;;;21.83;11.25;;;27.70;99.90;;;;;;5163780;28;20015;-77
2023/08/20 08:17:50;;;;;;;17.55;10.52;;;27.70;99.90;;;;;;5161655;28;20521;-78
2023/08/20 08:20:22;;;;;;;15.90;10.90;;;27.90;99.90;;;;;;5163160;28;20030;-76
2023/08/20 08:22:53;;;;;;;15.05;10.00;;;27.80;99.90;;;;;;5163060;28;20101;-77
2023/08/20 08:25:24;;;;;;;13.70;10.25;;;27.70;99.90;;;;;;5163507;28;20023;-75
2023/08/20 08:27:55;;;;;;;12.90;9.90;;;27.70;99.90;;;;;;5162280;28;20050;-78
2023/08/20 08:30:25;;;;;;;15.27;10.57;;;27.80;99.90;;;;;;5163072;28;20114;-77
2023/08/20 08:32:58;;;;;;;18.23;10.85;;;27.70;99.90;;;;;;5162541;28;20351;-77
2023/08/20 08:35:29;;;;;;;12.57;10.48;;;27.80;99.90;;;;;;5166634;28;20030;-77
2023/08/20 08:38:01;;;;;;;17.25;11.45;;;28.00;99.90;;;;;;5166458;28;20037;-79
2023/08/20 08:40:33;;;;;;;13.88;11.63;;;28.20;99.90;;;;;;5165795;28;20058;-76
2023/08/20 08:43:04;;;;;;;12.15;10.85;;;28.40;99.90;;;;;;5165464;28;20381;-77
2023/08/20 08:45:35;;;;;;;14.10;12.43;;;28.40;99.90;;;;;;5162915;28;20030;-77
2023/08/20 08:48:06;;;;;;;15.15;13.63;;;28.60;99.90;;;;;;5164088;28;20116;-77
2023/08/20 08:50:37;;;;;;;18.88;14.70;;;28.60;99.90;;;;;;5164331;28;20025;-76
2023/08/20 08:53:08;;;;;;;15.52;14.00;;;28.50;99.90;;;;;;5164451;28;20053;-77
2023/08/20 08:55:39;;;;;;;19.13;14.30;;;28.40;99.90;;;;;;5164882;28;20022;-78
2023/08/20 08:58:10;;;;;;;14.82;13.32;;;28.40;99.90;;;;;;5163847;28;20026;-77
2023/08/20 09:00:41;;;;;;;15.32;12.73;;;28.50;99.90;;;;;;5165158;28;20105;-75
2023/08/20 09:03:12;;;;;;;14.07;11.82;;;28.60;99.90;;;;;;5165869;28;20041;-78
2023/08/20 09:05:50;;;;;;;13.45;10.90;;;28.80;99.90;;;;;;5166058;28;20046;-76
2023/08/20 09:08:28;;;;;;;12.07;10.77;;;29.00;99.90;;;;;;5165757;28;20034;-78
2023/08/20 09:11:01;;;;;;;13.48;12.07;;;28.90;99.90;;;;;;5165098;28;20920;-77
2023/08/20 09:13:37;;;;;;;18.60;12.65;;;28.90;99.90;;;;;;5164878;28;20038;-77
2023/08/20 09:16:10;;;;;;;14.98;13.45;;;28.90;99.90;;;;;;5164362;28;20498;-78
2023/08/20 09:18:45;;;;;;;16.42;14.00;;;29.00;99.90;;;;;;5165703;28;20034;-75
2023/08/20 09:21:16;;;;;;;15.63;14.02;;;28.90;99.90;;;;;;5165056;28;20030;-76
2023/08/20 09:23:47;;;;;;;14.90;13.32;;;28.90;99.90;;;;;;5166051;28;20068;-75
2023/08/20 09:26:17;;;;;;;15.02;11.95;;;29.00;99.90;;;;;;5164561;28;20069;-76
2023/08/20 09:28:49;;;;;;;13.68;12.32;;;29.10;99.90;;;;;;5165226;28;20068;-76
2023/08/20 09:31:38;;;;;;;13.85;11.38;;;29.10;99.90;;;;;;5164398;28;20022;-80
2023/08/20 09:34:13;;;;;;;13.00;11.35;;;29.20;99.90;;;;;;5163917;28;20021;-76
2023/08/20 09:36:44;;;;;;;16.23;10.20;;;29.30;99.90;;;;;;5161749;28;20037;-76
2023/08/20 09:39:15;;;;;;;14.70;10.30;;;29.30;99.90;;;;;;5161953;28;21086;-76
2023/08/20 09:41:48;;;;;;;13.57;10.43;;;29.40;99.90;;;;;;5163382;28;20018;-76
2023/08/20 09:44:21;;;;;;;12.55;9.98;;;29.40;99.90;;;;;;5165329;28;20037;-78
2023/08/20 09:46:52;;;;;;;12.50;10.68;;;29.20;99.90;;;;;;5163531;28;20112;-77
2023/08/20 09:49:28;;;;;;;14.32;10.00;;;29.30;99.90;;;;;;5160245;28;20410;-76
2023/08/20 09:52:03;;;;;;;13.05;9.90;;;29.50;99.90;;;;;;5163518;28;20038;-77
2023/08/20 09:54:55;;;;;;;10.88;8.32;;;29.60;99.90;;;;;;5162778;28;20030;-76
2023/08/20 09:57:33;;;;;;;12.25;8.60;;;29.70;99.90;;;;;;5164207;28;20061;-77
2023/08/20 10:00:14;;;;;;;9.30;8.40;;;30.20;99.90;;;;;;5162625;28;20080;-76
2023/08/20 10:02:45;;;;;;;10.82;8.48;;;29.70;99.90;;;;;;5164512;28;20672;-76
2023/08/20 10:05:15;;;;;;;12.80;8.40;;;29.90;99.90;;;;;;5164066;28;20027;-75
2023/08/20 10:07:47;;;;;;;10.65;7.75;;;30.00;99.90;;;;;;5163361;28;20042;-75
2023/08/20 10:10:18;;;;;;;11.63;7.90;;;29.90;99.90;;;;;;5165242;28;20027;-75
2023/08/20 10:12:50;;;;;;;13.52;8.07;;;30.00;99.90;;;;;;5162882;28;20069;-79
2023/08/20 10:15:23;;;;;;;10.55;8.55;;;29.80;99.90;;;;;;5164337;28;20421;-75
2023/08/20 10:17:57;;;;;;;13.13;8.45;;;29.90;99.90;;;;;;5164036;28;20034;-77
2023/08/20 10:20:33;;;;;;;14.00;8.40;;;30.00;99.90;;;;;;5162163;28;20022;-76
2023/08/20 10:23:04;;;;;;;11.20;7.97;;;29.90;99.90;;;;;;5162212;28;20022;-77
2023/08/20 10:25:42;;;;;;;11.52;8.00;;;29.80;99.90;;;;;;5165878;28;20026;-77
2023/08/20 10:28:34;;;;;;;12.70;8.37;;;30.00;99.90;;;;;;5164309;28;20038;-78
2023/08/20 10:31:11;;;;;;;18.23;8.50;;;30.10;99.90;;;;;;5152498;28;20577;-77
2023/08/20 10:33:49;;;;;;;10.68;7.53;;;30.10;99.90;;;;;;5159638;28;20625;-77
2023/08/20 10:36:26;;;;;;;9.95;7.70;;;30.10;99.90;;;;;;5165251;28;20030;-76
2023/08/20 10:38:58;;;;;;;12.02;7.88;;;30.30;99.90;;;;;;5165050;28;20033;-76
2023/08/20 10:41:31;;;;;;;11.43;7.70;;;30.20;99.90;;;;;;5163765;28;20034;-77
2023/08/20 10:44:02;;;;;;;15.35;8.38;;;30.20;99.90;;;;;;5164758;28;20093;-77
2023/08/20 10:46:56;;;;;;;15.57;8.07;;;30.20;99.90;;;;;;5164928;28;20088;-77
2023/08/20 10:49:31;;;;;;;14.70;7.97;;;30.30;99.90;;;;;;5164261;28;20031;-77
2023/08/20 10:52:03;;;;;;;11.27;7.47;;;30.00;99.90;;;;;;5164386;28;20030;-76
2023/08/20 10:54:34;;;;;;;12.70;7.55;;;30.10;99.90;;;;;;5164844;28;20019;-76
2023/08/20 10:57:08;;;;;;;13.63;7.82;;;30.20;99.90;;;;;;5162639;28;20128;-75
2023/08/20 10:59:43;;;;;;;12.57;7.40;;;30.40;99.90;;;;;;5162798;28;20030;-76
2023/08/20 11:02:17;;;;;;;10.20;7.32;;;30.40;99.90;;;;;;5162912;28;20045;-77
2023/08/20 11:04:53;;;;;;;10.63;7.90;;;30.30;99.90;;;;;;5161588;28;20029;-77
2023/08/20 11:07:31;;;;;;;10.77;7.85;;;30.40;99.90;;;;;;5163894;28;20474;-76
2023/08/20 11:10:05;;;;;;;10.77;7.35;;;30.50;99.90;;;;;;5164476;28;20157;-77
2023/08/20 11:12:39;;;;;;;10.45;7.75;;;30.40;99.90;;;;;;5164091;28;20045;-78
2023/08/20 11:15:13;;;;;;;10.40;7.43;;;30.30;99.90;;;;;;5164459;28;20050;-76
2023/08/20 11:17:48;;;;;;;11.32;8.07;;;30.60;99.90;;;;;;5574168;23;20038;-77
2023/08/20 11:20:20;;;;;;;9.63;7.28;;;30.40;99.90;;;;;;5166766;28;20022;-77
2023/08/20 11:22:51;;;;;;;10.07;7.75;;;30.50;99.90;;;;;;5166114;28;20027;-78
2023/08/20 11:25:22;;;;;;;13.10;9.02;;;30.40;99.90;;;;;;5165593;28;20042;-78
2023/08/20 11:27:52;;;;;;;12.65;8.45;;;30.50;99.90;;;;;;5165917;28;20042;-78
2023/08/20 11:30:30;;;;;;;8.93;8.05;;;30.70;99.90;;;;;;5165672;28;20474;-77
2023/08/20 11:33:00;;;;;;;11.95;7.93;;;30.50;99.90;;;;;;5166430;28;20606;-81
2023/08/20 11:35:40;;;;;;;12.13;7.88;;;30.50;99.90;;;;;;5164737;28;20031;-79
2023/08/20 11:38:13;;;;;;;10.15;8.27;;;30.60;99.90;;;;;;5166540;28;20025;-79
2023/08/20 11:40:44;;;;;;;12.75;8.48;;;30.30;99.90;;;;;;5165286;28;20038;-77
2023/08/20 11:43:16;;;;;;;12.32;8.95;;;30.50;99.90;;;;;;5166952;28;20022;-78
2023/08/20 11:45:48;;;;;;;10.30;8.68;;;30.50;99.90;;;;;;5166292;28;20019;-80
2023/08/20 11:48:21;;;;;;;11.27;8.30;;;30.50;99.90;;;;;;5166043;28;20058;-78
2023/08/20 11:50:52;;;;;;;12.38;9.07;;;30.40;99.90;;;;;;5166240;28;20109;-80
2023/08/20 11:53:25;;;;;;;16.55;8.57;;;30.50;99.90;;;;;;5164840;28;20031;-78
2023/08/20 11:55:56;;;;;;;10.57;7.97;;;30.30;99.90;;;;;;5166547;28;20035;-77
2023/08/20 11:58:28;;;;;;;13.60;8.48;;;30.40;99.90;;;;;;5165993;28;20355;-79
2023/08/20 12:00:59;;;;;;;14.45;8.60;;;30.40;99.90;;;;;;5166191;28;20030;-77
2023/08/20 12:03:31;;;;;;;12.43;8.80;;;30.50;99.90;;;;;;5166429;28;20033;-79
2023/08/20 12:06:17;;;;;;;14.15;9.30;;;30.70;99.90;;;;;;5165056;28;20030;-79
2023/08/20 12:08:48;;;;;;;14.55;9.40;;;30.70;99.90;;;;;;5168408;28;20090;-77
2023/08/20 12:11:24;;;;;;;10.93;8.70;;;30.70;99.90;;;;;;5170309;28;20037;-79
2023/08/20 12:13:56;;;;;;;12.88;8.30;;;30.80;99.90;;;;;;5168989;28;20054;-79
2023/08/20 12:16:27;;;;;;;11.20;8.32;;;30.90;99.90;;;;;;5170209;28;20030;-78
2023/08/20 12:18:58;;;;;;;16.08;8.00;;;30.90;99.90;;;;;;5169304;28;20528;-80
2023/08/20 12:21:29;;;;;;;11.30;7.95;;;31.10;99.90;;;;;;5168788;28;20035;-78
2023/08/20 12:23:59;;;;;;;11.55;7.38;;;31.10;99.90;;;;;;5170075;28;20018;-79
2023/08/20 12:26:30;;;;;;;15.05;8.23;;;31.00;99.90;;;;;;5169917;28;20092;-79
2023/08/20 12:29:01;;;;;;;12.77;7.65;;;31.10;99.90;;;;;;5169817;28;20026;-77
2023/08/20 12:31:33;;;;;;;14.07;7.63;;;31.20;99.90;;;;;;5169496;28;20414;-79
2023/08/20 12:34:04;;;;;;;14.45;7.47;;;31.10;99.90;;;;;;5169439;28;20037;-78
2023/08/20 12:36:35;;;;;;;11.23;7.28;;;31.20;99.90;;;;;;5168094;28;20019;-79
2023/08/20 12:39:06;;;;;;;9.32;7.10;;;31.30;99.90;;;;;;5169820;28;20036;-77
2023/08/20 12:41:38;;;;;;;12.10;7.00;;;31.10;99.90;;;;;;5169384;28;20093;-77
2023/08/20 12:44:09;;;;;;;11.07;7.70;;;31.10;99.90;;;;;;5169507;28;20034;-78
2023/08/20 12:46:40;;;;;;;9.68;8.07;;;31.10;99.90;;;;;;5167858;28;20037;-78
2023/08/20 12:49:10;;;;;;;10.55;9.35;;;31.20;99.90;;;;;;5169478;28;20076;-78
2023/08/20 12:51:41;;;;;;;19.05;12.15;;;31.30;99.90;;;;;;5169522;28;20517;-79
2023/08/20 12:54:12;;;;;;;11.45;7.63;;;31.30;99.90;;;;;;5169139;28;20026;-78
2023/08/20 12:56:43;;;;;;;13.80;7.57;;;31.40;99.90;;;;;;5169275;28;20084;-78
2023/08/20 12:59:14;;;;;;;13.65;7.55;;;31.30;99.90;;;;;;5169255;28;20018;-79
2023/08/20 13:01:45;;;;;;;9.27;7.30;;;31.40;99.90;;;;;;5168818;28;20033;-77
2023/08/20 13:04:17;;;;;;;12.50;8.32;;;31.40;99.90;;;;;;5167372;28;20053;-78
2023/08/20 13:06:49;;;;;;;12.30;7.97;;;31.20;99.90;;;;;;5163803;28;20074;-77